Aérodrome :
LOGIN :

S'inscrire | Disclaimer

   EN    FR    IT 

 










Légende :    VFR   VFR Marginal   IFR   IFR Intensif   IFR Très Intensif
Visi : 
Plafond : 
>= 8 km
>= 3000ft
5 à 8 km
1000 à 3000 ft
1500m à 5 km
500 à 1000 ft
800 à 1500m
200 à 500 ft
< 800m
< 200 ft
Symboles :   Orages  Brouillard  Fortes neiges  Fortes précipitations  Vent > 20 kt
SIGMETs :   Divers  Orages  Givrage  Turbulence  Onde Orograph.  Cendres Volcan.






- Altitude de l'aérodrome : 202 ft
- Code IATA : LGW


EGKK - London Gatwick

DERNIER METAR :
  • 100450Z VRB01KT 9999 FEW026 00/M00 Q1023

METARs EXPIRÉS :
  • 100420Z 18002KT CAVOK 01/01 Q1023
  • 100350Z 16003KT CAVOK 02/01 Q1024
  • 100320Z VRB01KT CAVOK M01/M02 Q1024
  • 100250Z VRB01KT 9000 NSC M02/M02 Q1024
  • 100220Z 00000KT CAVOK M01/M01 Q1024

TAF TAF EGKK
Valide du 10 à 00h jusqu'au 11 à 06h UTC


092301Z 1000/1106 19006KT 9999 FEW035
PROB40 1000/1005 8000
BECMG 1006/1009 19015G25KT
TEMPO 1010/1015 20020G35KT
TEMPO 1013/1023 7000 RA BKN014
BECMG 1015/1018 22020G32KT
PROB30
TEMPO 1017/1020 22025G42KT 4000 +RA
BECMG 1020/1023 27010KT



MET'MAP, la Météo Aéronautique d'un coup d'oeil ! - Copyright ORBIFLY Décembre 2007 - Disclaimer

ORBIFLY MET'MAP TEAM :

Programmation & Développement : Alexandra Zaïnal
Sur une idée originale de : Baudouin d'Aumeries
Assistance à la programmation : Marc-Olivier Méhu
Soutien technique & logistique : Manuel Goepfert

Contact : metmap@orbifly.com




SOURCES & CREDITS :

   NOAA